Time;durP1;ratioP1;P1;durP2;ratioP2;P2;SDS_P1;SDS_P2;PMS_P1;PMS_P2;Temp;Humidity;BMP_temperature;BMP_pressure;BME280_temperature;BME280_humidity;BME280_pressure;Samples;Min_cycle;Max_cycle;Signal;HPM_P1;HPM_P2
2023/08/05 00:02:42;;;;;;;5.15;1.70;;;;;;;;;;10367133;28;20113;-58
2023/08/05 00:07:42;;;;;;;8.50;2.45;;;;;;;;;;10367584;28;20493;-59
2023/08/05 00:12:43;;;;;;;5.35;2.42;;;;;;;;;;10367554;28;20030;-58
2023/08/05 00:17:43;;;;;;;10.70;2.60;;;;;;;;;;10367409;28;20220;-61
2023/08/05 00:22:44;;;;;;;8.27;2.50;;;;;;;;;;10367186;28;20045;-57
2023/08/05 00:27:45;;;;;;;5.18;1.95;;;;;;;;;;10366933;28;20034;-58
2023/08/05 00:32:45;;;;;;;4.43;2.03;;;;;;;;;;10367707;28;20030;-59
2023/08/05 00:37:46;;;;;;;7.93;2.50;;;;;;;;;;10367111;28;20076;-58
2023/08/05 00:42:47;;;;;;;7.72;2.25;;;;;;;;;;10367086;28;20026;-59
2023/08/05 00:47:48;;;;;;;21.50;2.45;;;;;;;;;;10367334;28;20033;-59
2023/08/05 00:52:48;;;;;;;4.90;1.90;;;;;;;;;;10365262;28;20074;-59
2023/08/05 00:57:49;;;;;;;2.83;1.70;;;;;;;;;;10365854;28;20022;-59
2023/08/05 01:02:50;;;;;;;3.05;1.85;;;;;;;;;;10367067;28;20113;-58
2023/08/05 01:07:51;;;;;;;5.47;1.88;;;;;;;;;;10371754;28;20034;-58
2023/08/05 01:12:51;;;;;;;4.85;1.80;;;;;;;;;;10374036;28;20508;-61
2023/08/05 01:17:54;;;;;;;2.35;1.55;;;;;;;;;;10372430;28;20057;-61
2023/08/05 01:22:57;;;;;;;2.72;1.60;;;;;;;;;;10372390;28;20045;-60
2023/08/05 01:28:01;;;;;;;3.47;1.70;;;;;;;;;;10372475;28;20367;-60
2023/08/05 01:33:02;;;;;;;3.28;1.65;;;;;;;;;;10373671;28;20103;-61
2023/08/05 01:38:03;;;;;;;3.00;1.55;;;;;;;;;;10371878;28;20481;-60
2023/08/05 01:43:03;;;;;;;6.93;1.88;;;;;;;;;;10373409;28;20113;-66
2023/08/05 01:48:04;;;;;;;3.08;1.70;;;;;;;;;;10372540;28;20026;-60
2023/08/05 01:53:05;;;;;;;4.38;1.77;;;;;;;;;;10372422;28;20053;-60
2023/08/05 01:58:06;;;;;;;2.53;1.83;;;;;;;;;;10372258;28;20084;-60
2023/08/05 02:03:06;;;;;;;5.35;1.70;;;;;;;;;;10372032;28;20038;-61
2023/08/05 02:08:07;;;;;;;3.92;1.60;;;;;;;;;;10371873;28;20076;-62
2023/08/05 02:13:08;;;;;;;4.85;1.95;;;;;;;;;;10371689;28;20044;-62
2023/08/05 02:18:09;;;;;;;7.78;1.85;;;;;;;;;;10370989;28;20085;-61
2023/08/05 02:23:09;;;;;;;1.77;1.52;;;;;;;;;;10371904;28;20197;-61
2023/08/05 02:28:10;;;;;;;2.78;1.60;;;;;;;;;;10371660;28;20038;-61
2023/08/05 02:33:10;;;;;;;2.92;1.50;;;;;;;;;;10370872;28;20044;-62
2023/08/05 02:38:11;;;;;;;3.13;1.70;;;;;;;;;;10370735;28;20042;-59
2023/08/05 02:43:12;;;;;;;3.75;1.60;;;;;;;;;;10369901;28;20041;-59
2023/08/05 02:48:12;;;;;;;2.55;1.80;;;;;;;;;;10370285;28;20069;-59
2023/08/05 02:53:13;;;;;;;3.35;1.30;;;;;;;;;;10369819;28;20099;-61
2023/08/05 02:58:15;;;;;;;3.05;1.60;;;;;;;;;;10369816;28;20061;-60
2023/08/05 03:03:16;;;;;;;1.90;1.35;;;;;;;;;;10369504;28;20033;-60
2023/08/05 03:08:16;;;;;;;3.22;1.38;;;;;;;;;;10369073;28;20033;-60
2023/08/05 03:13:17;;;;;;;4.85;1.45;;;;;;;;;;10369127;28;20025;-60
2023/08/05 03:18:17;;;;;;;2.58;1.50;;;;;;;;;;10369214;28;20049;-59
2023/08/05 03:23:18;;;;;;;3.40;1.80;;;;;;;;;;10368918;28;20085;-60
2023/08/05 03:28:18;;;;;;;1.90;1.58;;;;;;;;;;10368569;28;20029;-60
2023/08/05 03:33:19;;;;;;;2.53;1.38;;;;;;;;;;10368700;28;20245;-60
2023/08/05 03:38:20;;;;;;;1.65;1.50;;;;;;;;;;10368274;28;20554;-60
2023/08/05 03:43:21;;;;;;;4.90;2.00;;;;;;;;;;10368218;28;20032;-60
2023/08/05 03:48:22;;;;;;;2.80;1.35;;;;;;;;;;10368062;28;20497;-61
2023/08/05 03:53:23;;;;;;;2.28;1.33;;;;;;;;;;10367844;28;20159;-61
2023/08/05 03:58:25;;;;;;;1.52;1.30;;;;;;;;;;10368003;28;20052;-61
2023/08/05 04:03:25;;;;;;;2.90;1.45;;;;;;;;;;10368101;28;20128;-61
2023/08/05 04:08:26;;;;;;;2.67;1.20;;;;;;;;;;10367318;28;20029;-61
2023/08/05 04:13:28;;;;;;;1.50;1.35;;;;;;;;;;10367583;28;20076;-61
2023/08/05 04:18:29;;;;;;;1.58;1.23;;;;;;;;;;10367725;28;20041;-60
2023/08/05 04:23:31;;;;;;;3.88;1.90;;;;;;;;;;10367915;28;20053;-60
2023/08/05 04:28:31;;;;;;;2.67;1.42;;;;;;;;;;10367358;28;20549;-60
2023/08/05 04:33:32;;;;;;;2.22;1.50;;;;;;;;;;10366775;28;20100;-61
2023/08/05 04:38:33;;;;;;;2.50;1.40;;;;;;;;;;10367549;28;20040;-60
2023/08/05 04:43:33;;;;;;;10.18;1.42;;;;;;;;;;10374259;28;20508;-60
2023/08/05 04:48:34;;;;;;;2.70;1.40;;;;;;;;;;10374888;28;20026;-61
2023/08/05 04:53:35;;;;;;;2.50;1.20;;;;;;;;;;10374626;28;20050;-61
2023/08/05 04:58:35;;;;;;;2.67;1.60;;;;;;;;;;10374621;28;20494;-61
2023/08/05 05:03:36;;;;;;;3.03;1.70;;;;;;;;;;10373935;28;20026;-60
2023/08/05 05:08:36;;;;;;;3.13;1.50;;;;;;;;;;10374508;28;20022;-60
2023/08/05 05:13:38;;;;;;;4.05;1.55;;;;;;;;;;10373972;28;20030;-61
2023/08/05 05:18:39;;;;;;;1.40;1.30;;;;;;;;;;10374480;28;20076;-60
2023/08/05 05:23:39;;;;;;;2.90;1.20;;;;;;;;;;10374193;28;20536;-60
2023/08/05 05:28:40;;;;;;;1.58;1.23;;;;;;;;;;10373206;28;20493;-60
2023/08/05 05:33:42;;;;;;;2.42;1.20;;;;;;;;;;10372959;28;20037;-60
2023/08/05 05:38:43;;;;;;;1.05;0.90;;;;;;;;;;10373631;28;20034;-61
2023/08/05 05:43:43;;;;;;;1.25;1.10;;;;;;;;;;10372429;28;20037;-61
2023/08/05 05:48:44;;;;;;;1.80;1.40;;;;;;;;;;10372532;28;20083;-61
2023/08/05 05:53:44;;;;;;;2.47;1.25;;;;;;;;;;10371285;28;20045;-61
2023/08/05 05:58:45;;;;;;;2.58;1.38;;;;;;;;;;10372566;28;20496;-60
2023/08/05 06:03:46;;;;;;;1.17;1.08;;;;;;;;;;10372290;28;20034;-62
2023/08/05 06:08:46;;;;;;;1.30;1.10;;;;;;;;;;10372670;28;20034;-63
2023/08/05 06:13:47;;;;;;;1.40;0.93;;;;;;;;;;10371897;28;20099;-61
2023/08/05 06:18:48;;;;;;;2.03;1.13;;;;;;;;;;10371687;28;20030;-62
2023/08/05 06:24:00;;;;;;;1.23;1.10;;;;;;;;;;10371507;28;20033;-61
2023/08/05 06:29:00;;;;;;;1.10;1.00;;;;;;;;;;10371384;28;20065;-61
2023/08/05 06:34:01;;;;;;;1.40;1.30;;;;;;;;;;10370849;28;20030;-61
2023/08/05 06:39:03;;;;;;;2.70;1.30;;;;;;;;;;10371011;28;20088;-61
2023/08/05 06:44:03;;;;;;;1.50;1.23;;;;;;;;;;10370111;28;20394;-61
2023/08/05 06:55:38;;;;;;;4.70;1.00;;;;;;;;;;3990599;28;22001;-57
2023/08/05 07:00:57;;;;;;;5.65;1.00;;;;;;;;;;10366713;28;20049;-57
2023/08/05 07:05:58;;;;;;;2.90;1.27;;;;;;;;;;10368958;28;20159;-60
2023/08/05 07:10:58;;;;;;;1.20;1.10;;;;;;;;;;10369284;28;20504;-59
2023/08/05 07:16:03;;;;;;;2.50;1.05;;;;;;;;;;10369079;28;20022;-58
2023/08/05 07:21:04;;;;;;;1.10;1.00;;;;;;;;;;10369652;28;20026;-58
2023/08/05 07:26:04;;;;;;;1.60;1.10;;;;;;;;;;10368993;28;20088;-58
2023/08/05 07:31:11;;;;;;;3.78;1.10;;;;;;;;;;10368855;28;20033;-58
2023/08/05 07:36:16;;;;;;;1.27;1.10;;;;;;;;;;10369151;28;20030;-59
2023/08/05 07:41:16;;;;;;;3.38;1.15;;;;;;;;;;10368114;28;20105;-58
2023/08/05 07:46:19;;;;;;;2.17;1.10;;;;;;;;;;10368838;28;20022;-58
2023/08/05 07:51:19;;;;;;;1.52;1.15;;;;;;;;;;10368509;28;20038;-59
2023/08/05 07:56:27;;;;;;;2.35;1.10;;;;;;;;;;10367931;28;20045;-59
2023/08/05 08:01:33;;;;;;;1.05;1.00;;;;;;;;;;10368357;28;20158;-58
2023/08/05 08:06:34;;;;;;;3.00;1.20;;;;;;;;;;10367963;28;20041;-59
2023/08/05 08:11:34;;;;;;;3.40;0.90;;;;;;;;;;10368477;28;20485;-59
2023/08/05 08:16:43;;;;;;;1.38;1.08;;;;;;;;;;10367758;28;20382;-57
2023/08/05 08:21:43;;;;;;;2.80;1.15;;;;;;;;;;10367943;28;20482;-58
2023/08/05 08:26:44;;;;;;;2.92;1.10;;;;;;;;;;10367651;28;20037;-59
2023/08/05 08:31:44;;;;;;;2.75;0.90;;;;;;;;;;10367020;28;20034;-59
2023/08/05 08:36:45;;;;;;;6.28;1.85;;;;;;;;;;10367049;28;20092;-61
2023/08/05 08:41:48;;;;;;;3.38;1.60;;;;;;;;;;10366428;28;20041;-62
2023/08/05 08:46:49;;;;;;;11.73;2.03;;;;;;;;;;10365104;28;20101;-66
2023/08/05 08:51:51;;;;;;;2.75;1.50;;;;;;;;;;10366551;28;20030;-62
2023/08/05 08:56:52;;;;;;;2.20;1.50;;;;;;;;;;10364229;28;20050;-60
2023/08/05 09:01:56;;;;;;;3.50;1.40;;;;;;;;;;10366942;28;20041;-60
2023/08/05 09:06:56;;;;;;;2.40;1.30;;;;;;;;;;10365155;28;20033;-59
2023/08/05 09:11:58;;;;;;;3.45;1.23;;;;;;;;;;10364374;28;20026;-59
2023/08/05 09:17:00;;;;;;;2.35;1.40;;;;;;;;;;10361403;28;20028;-63
2023/08/05 09:22:05;;;;;;;7.50;1.60;;;;;;;;;;10365409;28;20022;-62
2023/08/05 09:27:06;;;;;;;2.22;1.38;;;;;;;;;;10368901;28;20022;-62
2023/08/05 09:32:07;;;;;;;1.98;1.40;;;;;;;;;;10373041;28;20453;-62
2023/08/05 09:37:07;;;;;;;1.30;1.20;;;;;;;;;;10373671;28;20112;-63
2023/08/05 09:42:24;;;;;;;1.63;1.08;;;;;;;;;;10372130;28;20061;-61
2023/08/05 09:47:28;;;;;;;3.15;1.33;;;;;;;;;;10373289;28;20025;-64
2023/08/05 09:52:29;;;;;;;3.58;1.05;;;;;;;;;;10371954;28;20042;-61
2023/08/05 09:57:33;;;;;;;5.47;1.20;;;;;;;;;;10370792;28;20050;-63
2023/08/05 10:02:35;;;;;;;1.52;1.38;;;;;;;;;;10371012;28;20516;-64
2023/08/05 10:07:39;;;;;;;2.72;1.33;;;;;;;;;;10371481;28;20381;-64
2023/08/05 10:13:08;;;;;;;2.20;1.48;;;;;;;;;;10372059;28;20026;-62
2023/08/05 10:18:15;;;;;;;1.38;1.27;;;;;;;;;;10368349;28;20026;-62
2023/08/05 10:23:15;;;;;;;4.75;1.55;;;;;;;;;;10371784;28;20080;-63
2023/08/05 10:28:25;;;;;;;4.15;1.58;;;;;;;;;;10367740;28;20561;-65
2023/08/05 10:33:26;;;;;;;2.15;1.30;;;;;;;;;;10370993;28;20136;-64
2023/08/05 10:38:26;;;;;;;3.53;1.27;;;;;;;;;;10370734;28;20033;-65
2023/08/05 10:43:31;;;;;;;0.82;0.82;;;;;;;;;;10371427;28;20038;-64
2023/08/05 10:48:35;;;;;;;2.40;1.05;;;;;;;;;;10370678;28;20032;-63
2023/08/05 10:53:36;;;;;;;3.05;1.30;;;;;;;;;;10370247;28;20026;-63
2023/08/05 10:58:37;;;;;;;2.47;1.40;;;;;;;;;;10370475;28;20042;-64
2023/08/05 11:03:56;;;;;;;2.40;1.17;;;;;;;;;;10370229;28;20026;-63
2023/08/05 11:09:00;;;;;;;1.20;1.10;;;;;;;;;;10369846;28;20096;-63
2023/08/05 11:14:02;;;;;;;1.15;1.00;;;;;;;;;;10369802;28;20727;-64
2023/08/05 11:19:06;;;;;;;0.90;0.90;;;;;;;;;;10369349;28;20030;-63
2023/08/05 11:24:07;;;;;;;1.88;1.10;;;;;;;;;;10369737;28;20113;-63
2023/08/05 11:29:08;;;;;;;0.98;0.80;;;;;;;;;;10359287;28;20025;-63
2023/08/05 11:34:08;;;;;;;2.60;1.10;;;;;;;;;;10368577;28;20037;-64
2023/08/05 11:39:09;;;;;;;2.08;1.00;;;;;;;;;;10368577;28;20026;-63
2023/08/05 11:44:10;;;;;;;1.35;0.90;;;;;;;;;;10368450;28;20030;-64
2023/08/05 11:49:14;;;;;;;0.95;0.95;;;;;;;;;;10367173;28;20021;-64
2023/08/05 11:54:28;;;;;;;1.13;0.90;;;;;;;;;;10368144;28;20030;-63
2023/08/05 11:59:45;;;;;;;1.55;1.20;;;;;;;;;;10368121;28;20061;-64
2023/08/05 12:04:51;;;;;;;1.15;0.88;;;;;;;;;;10367333;28;20030;-64
2023/08/05 12:10:16;;;;;;;1.67;1.20;;;;;;;;;;10368113;28;20057;-63
2023/08/05 12:15:27;;;;;;;2.25;1.13;;;;;;;;;;10367239;28;20034;-66
2023/08/05 12:20:30;;;;;;;2.72;1.35;;;;;;;;;;10367176;28;20026;-68
2023/08/05 12:25:32;;;;;;;1.42;1.00;;;;;;;;;;10367024;28;20105;-65
2023/08/05 12:30:32;;;;;;;2.20;1.10;;;;;;;;;;10360956;28;20474;-64
2023/08/05 12:35:33;;;;;;;2.42;1.27;;;;;;;;;;10366422;28;20037;-66
2023/08/05 12:40:34;;;;;;;1.85;0.95;;;;;;;;;;10363003;28;20026;-67
2023/08/05 12:45:34;;;;;;;4.85;1.27;;;;;;;;;;10367544;28;20053;-66
2023/08/05 12:50:35;;;;;;;2.33;1.10;;;;;;;;;;10366679;28;20175;-67
2023/08/05 12:55:35;;;;;;;1.60;1.00;;;;;;;;;;10366939;28;20029;-64
2023/08/05 13:00:44;;;;;;;3.67;1.38;;;;;;;;;;10365339;28;20046;-65
2023/08/05 13:05:45;;;;;;;3.25;1.30;;;;;;;;;;10374470;28;20029;-64
2023/08/05 13:10:47;;;;;;;5.80;1.40;;;;;;;;;;10373030;28;20057;-66
2023/08/05 13:15:47;;;;;;;1.65;1.20;;;;;;;;;;10374280;28;20034;-65
2023/08/05 13:20:48;;;;;;;6.30;1.50;;;;;;;;;;10374636;28;20029;-65
2023/08/05 13:25:48;;;;;;;2.67;1.27;;;;;;;;;;10373950;28;20473;-64
2023/08/05 13:30:49;;;;;;;0.95;0.93;;;;;;;;;;10372992;28;20473;-64
2023/08/05 13:35:50;;;;;;;1.75;1.20;;;;;;;;;;10372281;28;20370;-66
2023/08/05 13:40:54;;;;;;;3.15;1.10;;;;;;;;;;10369748;28;20485;-66
2023/08/05 13:45:56;;;;;;;1.70;0.90;;;;;;;;;;10372846;28;20226;-68
2023/08/05 13:51:02;;;;;;;1.58;1.10;;;;;;;;;;10367965;28;20033;-69
2023/08/05 13:56:04;;;;;;;2.33;1.13;;;;;;;;;;10371055;28;20041;-69
2023/08/05 14:01:04;;;;;;;8.73;1.10;;;;;;;;;;10372183;28;20034;-68
2023/08/05 14:06:05;;;;;;;1.27;0.93;;;;;;;;;;10372399;28;20451;-68
2023/08/05 14:11:05;;;;;;;0.80;0.80;;;;;;;;;;10371993;28;20382;-69
2023/08/05 14:16:06;;;;;;;0.80;0.80;;;;;;;;;;10370332;28;20033;-68
2023/08/05 14:21:07;;;;;;;1.17;0.80;;;;;;;;;;10371164;28;20502;-69
2023/08/05 14:26:07;;;;;;;1.77;0.90;;;;;;;;;;10371749;28;20021;-68
2023/08/05 14:31:08;;;;;;;1.80;0.80;;;;;;;;;;10369729;28;20033;-66
2023/08/05 14:36:12;;;;;;;0.98;0.90;;;;;;;;;;10369517;28;20541;-68
2023/08/05 14:41:15;;;;;;;1.15;1.00;;;;;;;;;;10369708;28;20044;-69
2023/08/05 14:46:15;;;;;;;1.52;1.05;;;;;;;;;;10370003;28;20536;-68
2023/08/05 14:51:16;;;;;;;0.75;0.73;;;;;;;;;;10363848;28;20038;-69
2023/08/05 14:56:17;;;;;;;1.33;0.90;;;;;;;;;;10369861;28;20121;-68
2023/08/05 15:01:18;;;;;;;0.90;0.90;;;;;;;;;;10370143;28;20022;-69
2023/08/05 15:06:19;;;;;;;1.67;0.98;;;;;;;;;;10369735;28;20061;-68
2023/08/05 15:11:31;;;;;;;1.20;1.10;;;;;;;;;;10369292;28;20571;-68
2023/08/05 15:16:32;;;;;;;2.47;1.00;;;;;;;;;;10369918;28;20033;-69
2023/08/05 15:21:32;;;;;;;1.02;0.90;;;;;;;;;;10368800;28;20550;-69
2023/08/05 15:26:33;;;;;;;2.00;0.93;;;;;;;;;;10368450;28;20064;-68
2023/08/05 15:31:33;;;;;;;0.80;0.80;;;;;;;;;;10368278;28;20401;-65
2023/08/05 15:36:34;;;;;;;1.13;0.93;;;;;;;;;;10368459;28;20451;-65
2023/08/05 15:41:35;;;;;;;1.58;0.90;;;;;;;;;;10368818;28;20290;-67
2023/08/05 15:46:36;;;;;;;1.40;1.05;;;;;;;;;;10367975;28;20022;-65
2023/08/05 15:51:36;;;;;;;4.47;1.23;;;;;;;;;;10367108;28;20042;-66
2023/08/05 15:56:37;;;;;;;1.67;1.02;;;;;;;;;;10361895;28;20042;-66
2023/08/05 16:01:37;;;;;;;5.18;1.15;;;;;;;;;;10366550;28;20034;-68
2023/08/05 16:06:38;;;;;;;1.90;1.10;;;;;;;;;;10361961;28;20076;-66
2023/08/05 16:11:38;;;;;;;2.60;1.27;;;;;;;;;;10365455;28;20033;-66
2023/08/05 16:16:39;;;;;;;1.23;1.10;;;;;;;;;;10364884;28;20032;-66
2023/08/05 16:21:40;;;;;;;3.47;1.10;;;;;;;;;;10366001;28;20021;-64
2023/08/05 16:26:44;;;;;;;6.97;1.40;;;;;;;;;;10366501;28;20030;-62
2023/08/05 16:31:45;;;;;;;7.30;1.20;;;;;;;;;;10361986;28;20060;-62
2023/08/05 16:36:45;;;;;;;1.85;0.85;;;;;;;;;;10368766;28;20030;-62
2023/08/05 16:41:46;;;;;;;2.00;1.00;;;;;;;;;;10375276;28;20096;-62
2023/08/05 16:46:48;;;;;;;2.85;1.10;;;;;;;;;;10375240;28;20026;-63
2023/08/05 16:51:48;;;;;;;1.80;1.25;;;;;;;;;;10374580;28;20520;-62
2023/08/05 16:56:49;;;;;;;1.20;1.10;;;;;;;;;;10374536;28;20038;-62
2023/08/05 17:01:50;;;;;;;2.83;0.85;;;;;;;;;;10375310;28;20045;-63
2023/08/05 17:06:50;;;;;;;2.00;1.10;;;;;;;;;;10374932;28;20504;-62
2023/08/05 17:11:51;;;;;;;2.15;1.00;;;;;;;;;;10374255;28;20029;-62
2023/08/05 17:16:52;;;;;;;2.85;1.10;;;;;;;;;;10372973;28;20033;-63
2023/08/05 17:21:52;;;;;;;1.77;0.98;;;;;;;;;;10373976;28;20030;-63
2023/08/05 17:26:53;;;;;;;2.28;0.95;;;;;;;;;;10373230;28;20048;-62
2023/08/05 17:31:53;;;;;;;1.27;0.82;;;;;;;;;;10369259;28;20053;-63
2023/08/05 17:36:54;;;;;;;2.90;1.00;;;;;;;;;;10372892;28;20046;-63
2023/08/05 17:41:54;;;;;;;1.20;1.10;;;;;;;;;;10372673;28;20466;-62
2023/08/05 17:46:56;;;;;;;1.33;1.00;;;;;;;;;;10372335;28;20030;-62
2023/08/05 17:51:56;;;;;;;0.90;0.90;;;;;;;;;;10372870;28;20092;-63
2023/08/05 17:56:57;;;;;;;1.33;0.88;;;;;;;;;;10372109;28;20096;-63
2023/08/05 18:01:57;;;;;;;1.20;1.00;;;;;;;;;;10372368;28;20501;-63
2023/08/05 18:06:58;;;;;;;2.95;1.00;;;;;;;;;;10371414;28;20034;-63
2023/08/05 18:11:59;;;;;;;2.75;0.85;;;;;;;;;;10367842;28;20037;-62
2023/08/05 18:16:59;;;;;;;2.42;1.00;;;;;;;;;;10371424;28;20029;-63
2023/08/05 18:22:00;;;;;;;1.92;0.95;;;;;;;;;;10372156;28;20033;-63
2023/08/05 18:27:00;;;;;;;2.95;1.17;;;;;;;;;;10371119;28;20026;-63
2023/08/05 18:32:01;;;;;;;1.27;0.90;;;;;;;;;;10370826;28;20022;-62
2023/08/05 18:37:02;;;;;;;1.88;0.90;;;;;;;;;;10371555;28;20025;-63
2023/08/05 18:42:03;;;;;;;3.17;1.10;;;;;;;;;;10369977;28;20026;-63
2023/08/05 18:47:04;;;;;;;1.52;1.13;;;;;;;;;;10371247;28;20382;-62
2023/08/05 18:52:05;;;;;;;5.47;1.00;;;;;;;;;;10370364;28;20034;-62
2023/08/05 18:57:05;;;;;;;1.90;1.67;;;;;;;;;;10369660;28;20162;-63
2023/08/05 19:02:06;;;;;;;3.10;1.17;;;;;;;;;;10384008;28;20034;-62
2023/08/05 19:07:07;;;;;;;1.30;0.98;;;;;;;;;;10369234;28;20022;-63
2023/08/05 19:12:08;;;;;;;0.90;0.82;;;;;;;;;;10369658;28;20025;-62
2023/08/05 19:17:09;;;;;;;1.05;0.93;;;;;;;;;;10369428;28;20041;-62
2023/08/05 19:22:09;;;;;;;2.55;1.00;;;;;;;;;;10368713;28;20038;-63
2023/08/05 19:27:11;;;;;;;3.50;0.93;;;;;;;;;;10366575;28;20030;-63
2023/08/05 19:32:11;;;;;;;2.92;1.30;;;;;;;;;;10364671;28;20041;-63
2023/08/05 19:37:12;;;;;;;2.55;0.77;;;;;;;;;;10368776;28;20531;-63
2023/08/05 19:42:12;;;;;;;3.00;1.25;;;;;;;;;;10367857;28;20103;-62
2023/08/05 19:47:13;;;;;;;0.88;0.88;;;;;;;;;;10367515;28;20025;-63
2023/08/05 19:52:13;;;;;;;3.22;1.17;;;;;;;;;;10368206;28;20037;-63
2023/08/05 19:57:14;;;;;;;1.95;1.10;;;;;;;;;;10368011;28;20050;-63
2023/08/05 20:02:15;;;;;;;1.98;0.98;;;;;;;;;;10368508;28;20034;-63
2023/08/05 20:07:15;;;;;;;2.90;1.30;;;;;;;;;;10368194;28;20033;-63
2023/08/05 20:12:17;;;;;;;3.03;1.00;;;;;;;;;;10366107;28;20034;-63
2023/08/05 20:17:18;;;;;;;2.35;0.95;;;;;;;;;;10367688;28;20032;-63
2023/08/05 20:22:19;;;;;;;1.00;0.85;;;;;;;;;;10367317;28;20076;-62
2023/08/05 20:27:19;;;;;;;7.82;1.20;;;;;;;;;;10367567;28;20523;-64
2023/08/05 20:32:21;;;;;;;1.25;1.15;;;;;;;;;;10367055;28;20246;-63
2023/08/05 20:37:21;;;;;;;5.47;1.15;;;;;;;;;;10366779;28;20026;-63
2023/08/05 20:42:22;;;;;;;1.80;1.20;;;;;;;;;;10367071;28;20030;-62
2023/08/05 20:47:23;;;;;;;2.30;1.40;;;;;;;;;;10367933;28;20045;-63
2023/08/05 20:52:24;;;;;;;2.70;1.40;;;;;;;;;;10366987;28;20041;-63
2023/08/05 20:57:24;;;;;;;3.95;1.40;;;;;;;;;;10366117;28;20532;-63
2023/08/05 21:02:25;;;;;;;2.08;1.10;;;;;;;;;;10361133;28;20104;-63
2023/08/05 21:07:29;;;;;;;1.95;1.20;;;;;;;;;;10366523;28;20390;-62
2023/08/05 21:12:29;;;;;;;2.97;1.60;;;;;;;;;;10365238;28;20539;-63
2023/08/05 21:17:32;;;;;;;2.58;1.40;;;;;;;;;;10366304;28;20088;-63
2023/08/05 21:22:32;;;;;;;2.05;1.50;;;;;;;;;;10367525;28;20088;-63
2023/08/05 21:27:33;;;;;;;3.53;1.73;;;;;;;;;;10372446;28;20084;-63
2023/08/05 21:32:33;;;;;;;2.85;1.58;;;;;;;;;;10372629;28;20038;-63
2023/08/05 21:37:34;;;;;;;1.77;1.52;;;;;;;;;;10371763;28;20331;-63
2023/08/05 21:42:34;;;;;;;13.43;2.00;;;;;;;;;;10372674;28;20022;-60
2023/08/05 21:47:35;;;;;;;3.88;1.70;;;;;;;;;;10372030;28;20080;-60
2023/08/05 21:52:37;;;;;;;3.47;1.50;;;;;;;;;;10373032;28;20060;-60
2023/08/05 21:57:37;;;;;;;4.10;1.55;;;;;;;;;;10372436;28;20037;-59
2023/08/05 22:02:39;;;;;;;5.30;1.70;;;;;;;;;;10372658;28;20030;-59
2023/08/05 22:07:39;;;;;;;6.53;1.75;;;;;;;;;;10372302;28;20040;-59
2023/08/05 22:12:41;;;;;;;8.02;1.85;;;;;;;;;;10372039;28;20044;-61
2023/08/05 22:17:42;;;;;;;3.30;1.52;;;;;;;;;;10371741;28;20105;-61
2023/08/05 22:22:42;;;;;;;2.83;1.73;;;;;;;;;;10371853;28;20133;-61
2023/08/05 22:27:43;;;;;;;3.00;1.55;;;;;;;;;;10372021;28;20390;-60
2023/08/05 22:32:44;;;;;;;3.85;1.70;;;;;;;;;;10370596;28;20038;-61
2023/08/05 22:37:44;;;;;;;3.53;1.63;;;;;;;;;;10363929;28;20022;-59
2023/08/05 22:42:45;;;;;;;3.42;1.67;;;;;;;;;;10370819;28;20022;-59
2023/08/05 22:47:45;;;;;;;3.08;1.77;;;;;;;;;;10371101;28;20042;-61
2023/08/05 22:52:46;;;;;;;3.92;1.60;;;;;;;;;;10370346;28;20041;-59
2023/08/05 22:57:46;;;;;;;5.13;1.83;;;;;;;;;;10368456;28;20032;-62
2023/08/05 23:02:47;;;;;;;2.92;1.48;;;;;;;;;;10367041;28;20025;-62
2023/08/05 23:07:47;;;;;;;11.00;1.85;;;;;;;;;;10368624;28;20041;-63
2023/08/05 23:12:48;;;;;;;5.43;1.70;;;;;;;;;;10368532;28;20363;-63
2023/08/05 23:17:49;;;;;;;2.10;1.35;;;;;;;;;;10369938;28;20426;-62
2023/08/05 23:22:49;;;;;;;2.33;1.70;;;;;;;;;;10368420;28;20417;-63
2023/08/05 23:27:50;;;;;;;4.80;1.75;;;;;;;;;;10369087;28;20467;-61
2023/08/05 23:32:50;;;;;;;3.78;1.67;;;;;;;;;;10369369;28;20470;-61
2023/08/05 23:37:51;;;;;;;5.18;1.80;;;;;;;;;;10365277;28;20437;-62
2023/08/05 23:42:51;;;;;;;2.00;1.38;;;;;;;;;;10368261;28;20025;-63
2023/08/05 23:47:52;;;;;;;4.00;1.55;;;;;;;;;;10368539;28;20030;-63
2023/08/05 23:52:53;;;;;;;2.60;1.60;;;;;;;;;;10368611;28;20034;-60
2023/08/05 23:57:53;;;;;;;6.93;1.40;;;;;;;;;;10367818;28;20422;-61
